Grand Strand Airport North Myrtle Beach US
ICAO: KCRE
IATA: CRE
Category: Medium
Scheduled Services: No

Elevation: 32 ft
TransAlt. 18000 ft.

Airport Communications:
MYRTLE BEACH APP/DEP:119.2
ATIS:119.625
CTAF:124.6
STRAND GND:121.8
ANDERSON RDO:123.6
STRAND TWR:124.6
UNICOM:122.95

KCRE Zoom In..

Runways:

(A) RW 05 length 5997 ft width 100 ft
---- / hdg 54

(B) RW 23 length 5997 ft width 100 ft
ILS 111.70 / hdg 234

Location; KCRE
Day. 25 / Time. 11.53 Zulu
* Altimeter: 29.80
* Temperature: 17° c. 62.6°f.
* Wind from: 250° Speed 09 kn with Gusts up to 17 kn.
Dewpoint: 14° c.
Visibility: 10 Statute Miles.
Clouds: Scattered 1000 ft.

KCRE 251153Z 25009G17KT 10SM SCT100 17/14 A2980 RMK AO1 SLP092 70002 T01720139 10172 20156 53012


Wind From 250°
Speed 09 kn.

  YouTube Music Video
 
jpsmedia.com for Web Design  worldairports.se 2018   terms of use